Time;durP1;ratioP1;P1;durP2;ratioP2;P2;SDS_P1;SDS_P2;PMS_P1;PMS_P2;Temp;Humidity;BMP_temperature;BMP_pressure;BME280_temperature;BME280_humidity;BME280_pressure;Samples;Min_cycle;Max_cycle;Signal;HPM_P1;HPM_P2
2022/01/13 00:02:04;;;;;;;293.10;66.53;;;4.10;99.90;;;;;;5134579;27;20515;-77
2022/01/13 00:04:30;;;;;;;308.48;67.15;;;4.10;99.90;;;;;;5134462;27;20043;-77
2022/01/13 00:06:56;;;;;;;343.58;69.57;;;4.00;99.90;;;;;;5133754;27;20039;-76
2022/01/13 00:09:21;;;;;;;329.20;67.38;;;4.00;99.90;;;;;;5133912;27;20048;-76
2022/01/13 00:11:49;;;;;;;324.15;66.18;;;4.00;99.90;;;;;;5134381;27;20126;-76
2022/01/13 00:17:09;;;;;;;338.05;66.50;;;4.00;99.90;;;;;;5134005;27;20051;-76
2022/01/13 00:22:01;;;;;;;308.70;66.72;;;4.00;99.90;;;;;;5133932;27;20058;-76
2022/01/13 00:24:27;;;;;;;342.35;65.32;;;4.00;99.90;;;;;;5133130;27;20535;-76
2022/01/13 00:26:54;;;;;;;335.20;65.13;;;4.00;99.90;;;;;;5132377;27;20042;-76
2022/01/13 00:29:27;;;;;;;407.88;66.20;;;4.10;99.90;;;;;;5134047;27;20047;-77
2022/01/13 00:31:53;;;;;;;355.85;66.97;;;4.10;99.90;;;;;;5133882;27;20091;-77
2022/01/13 00:34:19;;;;;;;356.73;64.28;;;4.10;99.90;;;;;;5133849;27;20050;-76
2022/01/13 00:36:44;;;;;;;363.00;64.65;;;4.10;99.90;;;;;;5133429;27;20051;-76
2022/01/13 00:39:12;;;;;;;329.50;63.15;;;4.10;99.90;;;;;;5133919;27;20130;-77
2022/01/13 00:41:39;;;;;;;349.52;63.97;;;4.10;99.90;;;;;;5133938;27;20054;-72
2022/01/13 00:44:07;;;;;;;369.45;65.30;;;4.10;99.90;;;;;;5133590;27;20035;-77
2022/01/13 00:46:45;;;;;;;351.83;63.40;;;4.10;99.90;;;;;;5134060;27;20039;-77
2022/01/13 00:49:13;;;;;;;375.63;64.05;;;4.10;99.90;;;;;;5134098;27;20137;-77
2022/01/13 00:51:39;;;;;;;353.73;60.33;;;4.10;99.90;;;;;;5133703;27;20046;-77
2022/01/13 00:54:06;;;;;;;356.23;62.95;;;4.10;99.90;;;;;;5133269;27;20050;-76
2022/01/13 00:56:33;;;;;;;405.60;64.03;;;4.10;99.90;;;;;;5133678;27;20415;-77
2022/01/13 00:59:00;;;;;;;372.95;62.60;;;4.10;99.90;;;;;;5133066;27;20043;-77
2022/01/13 01:01:26;;;;;;;371.30;63.50;;;4.10;99.90;;;;;;5133721;27;20388;-77
2022/01/13 01:03:51;;;;;;;379.95;62.20;;;4.10;99.90;;;;;;5133214;27;20046;-76
2022/01/13 01:06:17;;;;;;;380.25;60.72;;;4.20;99.90;;;;;;5133499;27;20047;-76
2022/01/13 01:08:43;;;;;;;376.77;60.78;;;4.10;99.90;;;;;;5132747;27;20066;-72
2022/01/13 01:11:09;;;;;;;377.20;62.20;;;4.20;99.90;;;;;;5134349;27;20248;-76
2022/01/13 01:13:37;;;;;;;395.98;60.75;;;4.20;99.90;;;;;;5133268;27;20468;-76
2022/01/13 01:16:07;;;;;;;410.30;62.95;;;4.20;99.90;;;;;;5133058;27;20058;-76
2022/01/13 01:28:49;;;;;;;401.67;60.72;;;4.20;99.90;;;;;;5133139;27;20040;-71
2022/01/13 01:31:15;;;;;;;402.58;60.45;;;4.20;99.90;;;;;;5133634;27;20047;-76
2022/01/13 01:33:51;;;;;;;407.73;61.85;;;4.20;99.90;;;;;;5133127;27;20127;-76
2022/01/13 01:36:18;;;;;;;390.33;61.38;;;4.20;99.90;;;;;;5133372;27;20055;-76
2022/01/13 01:38:47;;;;;;;411.42;63.63;;;4.20;99.90;;;;;;5126765;28;20126;-76
2022/01/13 01:41:13;;;;;;;427.13;63.10;;;4.20;99.90;;;;;;5133334;27;20047;-76
2022/01/13 01:43:39;;;;;;;381.70;61.17;;;4.20;99.90;;;;;;5132829;27;20038;-76
2022/01/13 01:46:05;;;;;;;380.92;60.28;;;4.20;99.90;;;;;;5132825;27;20046;-76
2022/01/13 01:48:35;;;;;;;384.25;61.08;;;4.20;99.90;;;;;;5132700;27;20036;-76
2022/01/13 01:51:02;;;;;;;393.52;60.47;;;4.20;99.90;;;;;;5131815;28;20491;-76
2022/01/13 01:53:28;;;;;;;428.27;61.08;;;4.20;99.90;;;;;;5133005;27;20051;-76
2022/01/13 01:55:55;;;;;;;405.77;57.78;;;4.20;99.90;;;;;;5132599;28;20130;-76
2022/01/13 01:58:22;;;;;;;382.83;56.80;;;4.20;99.90;;;;;;5132567;27;20054;-76
2022/01/13 02:00:47;;;;;;;409.40;59.60;;;4.20;99.90;;;;;;5132964;27;20039;-77
2022/01/13 02:03:15;;;;;;;408.17;60.35;;;4.30;99.90;;;;;;5132454;27;20047;-77
2022/01/13 02:05:41;;;;;;;435.30;59.90;;;4.30;99.90;;;;;;5131902;28;20055;-76
2022/01/13 02:08:07;;;;;;;415.58;59.33;;;4.20;99.90;;;;;;5132105;27;20043;-76
2022/01/13 02:10:33;;;;;;;424.63;59.78;;;4.30;99.90;;;;;;5132874;27;20043;-76
2022/01/13 02:13:06;;;;;;;410.33;59.38;;;4.30;99.90;;;;;;5132001;27;20400;-75
2022/01/13 02:15:34;;;;;;;406.67;58.08;;;4.30;99.90;;;;;;5130777;28;20391;-76
2022/01/13 02:18:04;;;;;;;401.10;58.78;;;4.30;99.90;;;;;;5132565;27;20055;-76
2022/01/13 02:20:45;;;;;;;392.00;58.45;;;4.30;99.90;;;;;;5132234;27;20407;-76
2022/01/13 02:23:11;;;;;;;400.90;57.33;;;4.30;99.90;;;;;;5132213;27;20075;-76
2022/01/13 02:25:37;;;;;;;396.42;58.00;;;4.30;99.90;;;;;;5132975;27;20521;-77
2022/01/13 02:28:03;;;;;;;376.25;58.55;;;4.30;99.90;;;;;;5132399;28;20047;-76
2022/01/13 02:30:28;;;;;;;402.15;58.75;;;4.30;99.90;;;;;;5132425;27;20051;-77
2022/01/13 02:32:54;;;;;;;451.60;60.58;;;4.30;99.90;;;;;;5136230;27;20047;-72
2022/01/13 02:35:20;;;;;;;400.13;60.25;;;4.30;99.90;;;;;;5136038;27;20043;-76
2022/01/13 02:37:46;;;;;;;412.33;61.15;;;4.30;99.90;;;;;;5135372;27;20243;-76
2022/01/13 02:40:12;;;;;;;413.20;58.55;;;4.30;99.90;;;;;;5135112;27;20493;-77
2022/01/13 02:42:37;;;;;;;399.35;56.85;;;4.30;99.90;;;;;;5136103;27;20047;-77
2022/01/13 02:45:14;;;;;;;425.67;59.10;;;4.30;99.90;;;;;;5135607;27;20043;-76
2022/01/13 02:50:14;;;;;;;460.70;60.38;;;4.30;99.90;;;;;;5134658;27;20411;-76
2022/01/13 02:52:40;;;;;;;408.80;58.38;;;4.30;99.90;;;;;;5136166;27;20061;-77
2022/01/13 02:55:07;;;;;;;402.63;56.53;;;4.30;99.90;;;;;;5135121;27;20130;-76
2022/01/13 02:57:32;;;;;;;403.27;58.85;;;4.30;99.90;;;;;;5136230;27;20472;-76
2022/01/13 02:59:59;;;;;;;407.35;58.25;;;4.30;99.90;;;;;;5135255;27;20053;-72
2022/01/13 03:02:30;;;;;;;385.02;57.15;;;4.30;99.90;;;;;;5135528;27;20062;-76
2022/01/13 03:04:56;;;;;;;426.63;59.40;;;4.30;99.90;;;;;;5134884;27;20051;-76
2022/01/13 03:07:22;;;;;;;411.02;56.85;;;4.30;99.90;;;;;;5135479;27;20083;-76
2022/01/13 03:09:48;;;;;;;418.67;57.28;;;4.30;99.90;;;;;;5135421;27;20078;-76
2022/01/13 03:12:14;;;;;;;378.85;56.70;;;4.30;99.90;;;;;;5134878;27;20043;-76
2022/01/13 03:14:39;;;;;;;374.33;58.30;;;4.30;99.90;;;;;;5135576;27;20035;-76
2022/01/13 03:17:05;;;;;;;415.02;58.60;;;4.30;99.90;;;;;;5135005;27;20094;-76
2022/01/13 03:19:32;;;;;;;410.60;58.63;;;4.30;99.90;;;;;;5135151;27;20123;-76
2022/01/13 03:21:57;;;;;;;416.05;57.17;;;4.40;99.90;;;;;;5135406;27;20066;-76
2022/01/13 03:24:23;;;;;;;400.70;57.80;;;4.40;99.90;;;;;;5134792;27;20094;-76
2022/01/13 03:26:49;;;;;;;407.65;59.70;;;4.40;99.90;;;;;;5155498;27;20100;-77
2022/01/13 03:29:18;;;;;;;407.05;61.28;;;4.30;99.90;;;;;;5121898;27;20042;-76
2022/01/13 03:31:46;;;;;;;396.77;59.00;;;4.30;99.90;;;;;;5135887;27;20112;-76
2022/01/13 03:34:13;;;;;;;407.20;60.92;;;4.40;99.90;;;;;;5134242;27;20123;-76
2022/01/13 03:36:40;;;;;;;425.65;60.88;;;4.40;99.90;;;;;;5135756;27;20043;-77
2022/01/13 03:39:08;;;;;;;391.15;60.13;;;4.40;99.90;;;;;;5134078;27;20551;-76
2022/01/13 03:41:36;;;;;;;357.25;57.28;;;4.40;99.90;;;;;;5135327;27;20129;-76
2022/01/13 03:44:08;;;;;;;403.33;60.65;;;4.40;99.90;;;;;;5133582;27;20070;-76
2022/01/13 03:46:37;;;;;;;361.23;55.58;;;4.40;99.90;;;;;;5135205;27;20050;-76
2022/01/13 03:49:08;;;;;;;387.58;57.25;;;4.40;99.90;;;;;;5134921;27;20043;-76
2022/01/13 03:51:55;;;;;;;378.52;59.47;;;4.40;99.90;;;;;;5135248;27;20399;-76
2022/01/13 03:54:35;;;;;;;380.17;57.95;;;4.40;99.90;;;;;;5133835;27;20111;-76
2022/01/13 03:57:55;;;;;;;376.35;58.60;;;4.40;99.90;;;;;;5135173;27;20432;-76
2022/01/13 04:00:45;;;;;;;365.85;57.88;;;4.40;99.90;;;;;;5133707;27;20081;-76
2022/01/13 04:03:11;;;;;;;369.67;59.08;;;4.40;99.90;;;;;;5134331;27;20093;-76
2022/01/13 04:06:08;;;;;;;362.30;58.08;;;4.40;99.90;;;;;;5134299;27;20572;-76
2022/01/13 04:08:34;;;;;;;359.08;58.13;;;4.40;99.90;;;;;;5133786;27;20050;-76
2022/01/13 04:11:06;;;;;;;369.92;60.30;;;4.40;99.90;;;;;;5134417;27;20054;-76
2022/01/13 04:16:08;;;;;;;344.50;56.38;;;4.40;99.90;;;;;;5134085;27;20111;-72
2022/01/13 04:18:34;;;;;;;337.77;56.28;;;4.40;99.90;;;;;;5134370;27;20126;-76
2022/01/13 04:21:01;;;;;;;352.23;59.13;;;4.40;99.90;;;;;;5134272;27;20043;-76
2022/01/13 04:23:27;;;;;;;351.20;56.67;;;4.40;99.90;;;;;;5133655;27;20492;-76
2022/01/13 04:25:52;;;;;;;336.85;57.22;;;4.30;99.90;;;;;;5133863;27;20079;-76
2022/01/13 04:28:25;;;;;;;350.45;58.13;;;4.30;99.90;;;;;;5133657;27;20135;-76
2022/01/13 04:30:53;;;;;;;335.73;54.80;;;4.40;99.90;;;;;;5134202;27;20054;-76
2022/01/13 04:33:19;;;;;;;354.42;58.63;;;4.30;99.90;;;;;;5132694;27;20043;-76
2022/01/13 04:35:45;;;;;;;350.95;57.28;;;4.30;99.90;;;;;;5133402;27;20039;-76
2022/01/13 04:38:11;;;;;;;337.23;56.63;;;4.40;99.90;;;;;;5133965;27;20058;-72
2022/01/13 04:40:44;;;;;;;346.00;56.10;;;4.30;99.90;;;;;;5133711;27;20511;-76
2022/01/13 04:43:11;;;;;;;322.38;53.58;;;4.30;99.90;;;;;;5134184;27;20047;-76
2022/01/13 04:45:36;;;;;;;356.48;59.03;;;4.30;99.90;;;;;;5131953;27;20035;-76
2022/01/13 04:48:02;;;;;;;351.70;55.65;;;4.30;99.90;;;;;;5133534;27;20050;-76
2022/01/13 04:50:28;;;;;;;332.13;55.67;;;4.30;99.90;;;;;;5133182;27;20118;-76
2022/01/13 04:52:54;;;;;;;330.75;55.38;;;4.30;99.90;;;;;;5133919;27;20042;-76
2022/01/13 04:55:29;;;;;;;357.85;55.90;;;4.30;99.90;;;;;;5132797;27;20535;-75
2022/01/13 04:57:55;;;;;;;359.13;58.70;;;4.30;99.90;;;;;;5132847;27;20109;-77
2022/01/13 05:00:22;;;;;;;356.42;58.17;;;4.30;99.90;;;;;;5132859;27;20035;-77
2022/01/13 05:02:48;;;;;;;344.73;56.50;;;4.30;99.90;;;;;;5133875;27;20055;-78
2022/01/13 05:05:14;;;;;;;321.88;55.25;;;4.30;99.90;;;;;;5133607;27;20242;-77
2022/01/13 05:07:40;;;;;;;327.60;55.45;;;4.30;99.90;;;;;;5132640;27;20550;-77
2022/01/13 05:10:07;;;;;;;350.67;56.60;;;4.30;99.90;;;;;;5133785;27;20079;-78
2022/01/13 05:12:41;;;;;;;339.40;55.80;;;4.30;99.90;;;;;;5132834;27;20050;-77
2022/01/13 05:15:10;;;;;;;332.05;57.95;;;4.30;99.90;;;;;;5133678;27;20042;-77
2022/01/13 05:20:20;;;;;;;353.75;58.42;;;4.30;99.90;;;;;;5132707;27;20175;-73
2022/01/13 05:22:46;;;;;;;338.80;53.20;;;4.30;99.90;;;;;;5133635;27;20488;-76
2022/01/13 05:25:11;;;;;;;344.83;54.33;;;4.30;99.90;;;;;;5133546;27;20042;-77
2022/01/13 05:27:37;;;;;;;339.10;53.97;;;4.30;99.90;;;;;;5132967;28;20047;-77
2022/01/13 05:30:05;;;;;;;301.10;52.28;;;4.30;99.90;;;;;;5133159;27;20051;-77
2022/01/13 05:32:31;;;;;;;324.63;53.50;;;4.30;99.90;;;;;;5131955;28;20054;-76
2022/01/13 05:34:57;;;;;;;292.92;52.85;;;4.20;99.90;;;;;;5133664;28;20039;-76
2022/01/13 05:37:22;;;;;;;315.98;52.88;;;4.30;99.90;;;;;;5132842;28;20039;-75
2022/01/13 05:39:48;;;;;;;334.60;53.05;;;4.30;99.90;;;;;;5133348;27;20043;-76
2022/01/13 05:42:14;;;;;;;301.73;52.72;;;4.30;99.90;;;;;;5133404;27;20130;-77
2022/01/13 05:44:40;;;;;;;329.10;52.53;;;4.30;99.90;;;;;;5132895;27;20061;-76
2022/01/13 05:47:08;;;;;;;300.90;51.33;;;4.30;99.90;;;;;;5133340;28;20043;-76
2022/01/13 05:49:34;;;;;;;282.10;51.17;;;4.30;99.90;;;;;;5132449;27;20407;-76
2022/01/13 05:52:00;;;;;;;327.10;53.10;;;4.30;99.90;;;;;;5132936;28;20126;-76
2022/01/13 05:54:26;;;;;;;281.48;50.40;;;4.30;99.90;;;;;;5132629;28;20039;-74
2022/01/13 05:56:51;;;;;;;288.25;50.03;;;4.30;99.90;;;;;;5133249;27;20047;-76
2022/01/13 05:59:19;;;;;;;312.17;49.45;;;4.30;99.90;;;;;;5133191;28;20050;-76
2022/01/13 06:01:44;;;;;;;289.77;49.38;;;4.30;99.90;;;;;;5131703;28;20085;-75
2022/01/13 06:04:10;;;;;;;291.10;48.42;;;4.30;99.90;;;;;;5132987;28;20078;-75
2022/01/13 06:06:36;;;;;;;313.52;51.28;;;4.30;99.90;;;;;;5134236;27;20126;-76
2022/01/13 06:09:02;;;;;;;297.30;49.83;;;4.30;99.90;;;;;;5137137;27;20039;-76
2022/01/13 06:11:37;;;;;;;258.25;47.42;;;4.30;99.90;;;;;;5136565;27;20518;-75
2022/01/13 06:14:03;;;;;;;264.08;48.33;;;4.30;99.90;;;;;;5137134;27;20099;-76
2022/01/13 06:16:28;;;;;;;295.50;49.60;;;4.20;99.90;;;;;;5136336;27;20391;-75
2022/01/13 06:18:54;;;;;;;305.98;50.42;;;4.30;99.90;;;;;;5136674;27;20065;-77
2022/01/13 06:21:20;;;;;;;292.23;51.03;;;4.30;99.90;;;;;;5137236;27;20051;-77
2022/01/13 06:23:45;;;;;;;322.50;54.17;;;4.20;99.90;;;;;;5136374;27;20035;-76
2022/01/13 06:26:11;;;;;;;302.40;51.45;;;4.20;99.90;;;;;;5136911;27;20043;-76
2022/01/13 06:28:37;;;;;;;290.20;50.50;;;4.20;99.90;;;;;;5136449;27;20043;-76
2022/01/13 06:31:02;;;;;;;308.75;51.85;;;4.20;99.90;;;;;;5154973;27;20047;-76
2022/01/13 06:33:28;;;;;;;298.85;50.70;;;4.20;99.90;;;;;;5115751;28;20051;-72
2022/01/13 06:35:55;;;;;;;283.77;49.60;;;4.20;99.90;;;;;;5115584;28;20119;-77
2022/01/13 06:38:20;;;;;;;291.45;50.13;;;4.20;99.90;;;;;;5114623;28;20059;-77
2022/01/13 06:40:47;;;;;;;286.67;51.25;;;4.20;99.90;;;;;;5115471;28;20051;-77
2022/01/13 06:43:13;;;;;;;358.83;53.80;;;4.20;99.90;;;;;;5130542;27;20580;-77
2022/01/13 06:45:39;;;;;;;316.20;51.25;;;4.20;99.90;;;;;;5135897;27;20043;-76
2022/01/13 06:48:05;;;;;;;316.98;52.00;;;4.20;99.90;;;;;;5136064;27;20444;-76
2022/01/13 06:50:31;;;;;;;289.33;50.35;;;4.20;99.90;;;;;;5136013;27;20082;-72
2022/01/13 06:52:57;;;;;;;292.02;49.92;;;4.20;99.90;;;;;;5136392;27;20043;-77
2022/01/13 06:55:22;;;;;;;288.80;50.00;;;4.30;99.90;;;;;;5136004;27;20071;-77
2022/01/13 06:57:48;;;;;;;319.52;52.08;;;4.20;99.90;;;;;;5135345;27;20039;-76
2022/01/13 07:00:14;;;;;;;308.85;52.05;;;4.20;99.90;;;;;;5135455;27;20075;-77
2022/01/13 07:02:40;;;;;;;306.75;52.28;;;4.30;99.90;;;;;;5135516;27;20047;-76
2022/01/13 07:05:06;;;;;;;276.73;50.38;;;4.20;99.90;;;;;;5136031;27;20448;-77
2022/01/13 07:07:35;;;;;;;318.08;53.40;;;4.20;99.90;;;;;;5135410;27;20567;-72
2022/01/13 07:10:01;;;;;;;325.60;53.85;;;4.30;99.90;;;;;;5136166;27;20058;-77
2022/01/13 07:12:27;;;;;;;318.23;52.17;;;4.30;99.90;;;;;;5135914;27;20468;-77
2022/01/13 07:14:52;;;;;;;300.05;52.08;;;4.30;99.90;;;;;;5135168;27;20096;-76
2022/01/13 07:17:18;;;;;;;303.38;52.95;;;4.30;99.90;;;;;;5134061;27;20054;-77
2022/01/13 07:19:47;;;;;;;319.88;52.47;;;4.30;99.90;;;;;;5134886;27;20421;-76
2022/01/13 07:22:16;;;;;;;278.38;49.33;;;4.30;99.90;;;;;;5135725;27;20491;-77
2022/01/13 07:24:42;;;;;;;286.08;50.05;;;4.30;99.90;;;;;;5135086;27;20039;-76
2022/01/13 07:27:07;;;;;;;321.08;52.28;;;4.30;99.90;;;;;;5169305;27;20043;-77
2022/01/13 07:29:33;;;;;;;286.13;52.55;;;4.30;99.90;;;;;;5167448;27;20046;-76
2022/01/13 07:31:59;;;;;;;289.98;51.03;;;4.30;99.90;;;;;;5135038;27;20064;-76
2022/01/13 07:34:25;;;;;;;303.80;52.00;;;4.30;99.90;;;;;;5135411;27;20048;-77
2022/01/13 07:36:51;;;;;;;277.27;51.83;;;4.30;99.90;;;;;;5134909;27;20058;-76
2022/01/13 07:39:16;;;;;;;308.30;51.38;;;4.30;99.90;;;;;;5135136;27;20107;-77
2022/01/13 07:41:42;;;;;;;310.35;52.05;;;4.30;99.90;;;;;;5133972;27;20488;-76
2022/01/13 07:44:09;;;;;;;287.92;51.38;;;4.40;99.90;;;;;;5135595;27;20036;-77
2022/01/13 07:46:35;;;;;;;310.58;52.10;;;4.30;99.90;;;;;;5135216;27;20087;-77
2022/01/13 07:49:01;;;;;;;266.75;50.60;;;4.30;99.90;;;;;;5134631;27;20403;-77
2022/01/13 07:51:29;;;;;;;338.15;53.60;;;4.40;99.90;;;;;;5134918;27;20039;-76
2022/01/13 07:53:55;;;;;;;295.55;51.10;;;4.40;99.90;;;;;;5134479;27;20099;-76
2022/01/13 07:56:21;;;;;;;305.75;52.60;;;4.30;99.90;;;;;;5135052;27;20484;-77
2022/01/13 07:58:47;;;;;;;250.75;49.30;;;4.40;99.90;;;;;;5134410;27;20054;-76
2022/01/13 08:01:13;;;;;;;246.43;48.97;;;4.40;99.90;;;;;;5134887;27;20043;-77
2022/01/13 08:03:39;;;;;;;281.73;52.10;;;4.40;99.90;;;;;;5134133;27;20043;-77
2022/01/13 08:06:05;;;;;;;278.92;50.60;;;4.40;99.90;;;;;;5134119;27;20047;-77
2022/01/13 08:08:35;;;;;;;294.15;52.90;;;4.40;99.90;;;;;;5134868;27;20039;-77
2022/01/13 08:11:06;;;;;;;254.90;49.72;;;4.40;99.90;;;;;;5134285;27;20049;-76
2022/01/13 08:13:32;;;;;;;274.00;50.35;;;4.40;99.90;;;;;;5134648;27;20083;-78
2022/01/13 08:16:06;;;;;;;264.05;49.35;;;4.40;99.90;;;;;;5132721;27;20049;-76
2022/01/13 08:21:16;;;;;;;254.13;49.97;;;4.50;99.90;;;;;;5134350;27;20138;-76
2022/01/13 08:23:42;;;;;;;253.95;48.83;;;4.40;99.90;;;;;;5133598;27;20491;-76
2022/01/13 08:26:08;;;;;;;270.30;49.97;;;4.50;99.90;;;;;;5134135;27;20130;-76
2022/01/13 08:28:34;;;;;;;259.38;51.03;;;4.50;99.90;;;;;;5133874;27;20047;-76
2022/01/13 08:30:59;;;;;;;229.55;46.75;;;4.50;99.90;;;;;;5133659;27;20085;-75
2022/01/13 08:33:25;;;;;;;234.05;47.92;;;4.50;99.90;;;;;;5132030;27;20476;-76
2022/01/13 08:35:53;;;;;;;223.88;47.88;;;4.50;99.90;;;;;;5133728;27;20043;-76
2022/01/13 08:38:20;;;;;;;260.63;48.97;;;4.50;99.90;;;;;;5133974;27;20104;-76
2022/01/13 08:40:47;;;;;;;231.77;47.55;;;4.50;99.90;;;;;;5134150;27;20047;-72
2022/01/13 08:43:14;;;;;;;240.35;47.30;;;4.60;99.90;;;;;;5134114;27;20042;-76
2022/01/13 08:45:39;;;;;;;253.73;47.65;;;4.60;99.90;;;;;;5134136;27;20047;-76
2022/01/13 08:48:06;;;;;;;250.55;48.63;;;4.60;99.90;;;;;;5132729;27;20138;-76
2022/01/13 08:50:32;;;;;;;239.25;46.70;;;4.60;99.90;;;;;;5134034;27;20043;-77
2022/01/13 08:52:57;;;;;;;193.77;44.97;;;4.60;99.90;;;;;;5133227;27;20047;-81
2022/01/13 08:55:23;;;;;;;220.88;46.40;;;4.60;99.90;;;;;;5133962;27;20039;-80
2022/01/13 08:57:49;;;;;;;181.45;42.67;;;4.60;99.90;;;;;;5133126;27;20108;-73
2022/01/13 09:00:15;;;;;;;219.40;46.78;;;4.60;99.90;;;;;;5133916;27;20102;-80
2022/01/13 09:02:43;;;;;;;191.70;42.97;;;4.60;99.90;;;;;;5133658;27;20055;-80
2022/01/13 09:05:10;;;;;;;201.38;44.83;;;4.60;99.90;;;;;;5133275;27;20051;-80
2022/01/13 09:07:35;;;;;;;185.43;42.65;;;4.60;99.90;;;;;;5133864;27;20126;-79
2022/01/13 09:10:01;;;;;;;191.95;44.08;;;4.70;99.90;;;;;;5132926;27;20078;-78
2022/01/13 09:12:27;;;;;;;191.13;43.75;;;4.70;99.90;;;;;;5133294;27;20178;-80
2022/01/13 09:14:59;;;;;;;200.07;44.10;;;4.70;99.90;;;;;;5133035;27;20039;-80
2022/01/13 09:17:24;;;;;;;188.73;43.03;;;4.70;99.90;;;;;;5126702;27;20054;-75
2022/01/13 09:19:51;;;;;;;185.02;43.53;;;4.70;99.90;;;;;;5127596;27;20047;-73
2022/01/13 09:22:18;;;;;;;184.43;42.17;;;4.70;99.90;;;;;;5128985;27;20114;-74
2022/01/13 09:24:44;;;;;;;172.32;43.05;;;4.70;99.90;;;;;;5130926;27;20039;-80
2022/01/13 09:27:10;;;;;;;184.80;43.42;;;4.70;99.90;;;;;;5128182;27;20054;-80
2022/01/13 09:29:35;;;;;;;175.07;41.63;;;4.70;99.90;;;;;;5130315;27;20119;-75
2022/01/13 09:32:02;;;;;;;186.27;42.00;;;4.80;99.90;;;;;;5129596;28;20035;-80
2022/01/13 09:34:28;;;;;;;185.43;41.10;;;4.80;99.90;;;;;;5129784;27;20043;-81
2022/01/13 09:36:54;;;;;;;155.38;39.60;;;4.80;99.90;;;;;;5129876;28;20043;-73
2022/01/13 09:39:19;;;;;;;176.82;42.13;;;4.80;99.90;;;;;;5129653;28;20070;-79
2022/01/13 09:41:47;;;;;;;163.13;40.38;;;4.80;99.90;;;;;;5132223;27;20096;-80
2022/01/13 09:44:13;;;;;;;165.77;40.33;;;4.80;99.90;;;;;;5133852;27;20215;-78
2022/01/13 09:46:39;;;;;;;164.63;41.60;;;4.80;99.90;;;;;;5141885;27;20110;-80
2022/01/13 09:49:06;;;;;;;175.63;41.47;;;4.80;99.90;;;;;;5134258;27;20050;-80
2022/01/13 09:51:36;;;;;;;156.07;39.25;;;4.80;99.90;;;;;;5135043;27;20050;-79
2022/01/13 09:54:03;;;;;;;164.15;39.15;;;4.80;99.90;;;;;;5148263;27;20114;-81
2022/01/13 09:56:29;;;;;;;157.55;38.80;;;4.80;99.90;;;;;;5155498;27;20385;-80
2022/01/13 09:58:55;;;;;;;174.88;40.35;;;4.80;99.90;;;;;;5155658;27;20042;-72
2022/01/13 10:01:21;;;;;;;157.77;38.92;;;4.80;99.90;;;;;;5155181;27;20046;-80
2022/01/13 10:03:46;;;;;;;153.73;38.85;;;4.80;99.90;;;;;;5137306;27;20047;-79
2022/01/13 10:06:15;;;;;;;147.27;38.92;;;4.80;99.90;;;;;;5134476;27;20043;-79
2022/01/13 10:08:51;;;;;;;144.10;37.55;;;4.90;99.90;;;;;;5134344;27;20069;-74
2022/01/13 10:11:36;;;;;;;155.77;39.45;;;4.90;99.90;;;;;;5133819;27;20460;-79
2022/01/13 10:14:15;;;;;;;139.57;37.67;;;4.90;99.90;;;;;;5134466;27;20050;-80
2022/01/13 10:16:49;;;;;;;139.85;37.80;;;4.90;99.90;;;;;;5137745;27;20047;-79
2022/01/13 10:19:44;;;;;;;128.63;36.22;;;4.90;99.90;;;;;;5128583;27;20039;-80
2022/01/13 10:22:20;;;;;;;124.95;36.13;;;5.00;99.90;;;;;;5132093;27;20479;-79
2022/01/13 10:24:52;;;;;;;137.18;37.08;;;5.00;99.90;;;;;;5134998;27;20199;-79
2022/01/13 10:27:20;;;;;;;139.75;38.67;;;5.00;99.90;;;;;;5133148;27;20559;-76
2022/01/13 10:29:49;;;;;;;146.73;38.03;;;5.00;99.90;;;;;;5134035;27;20047;-79
2022/01/13 10:32:25;;;;;;;141.80;38.85;;;5.00;99.90;;;;;;5133494;27;20043;-79
2022/01/13 10:35:15;;;;;;;129.90;39.05;;;5.00;99.90;;;;;;5113369;28;20035;-79
2022/01/13 10:37:45;;;;;;;143.37;39.17;;;5.00;99.90;;;;;;5151442;27;20078;-79
2022/01/13 10:40:29;;;;;;;138.32;38.17;;;5.00;99.90;;;;;;5153953;27;20058;-79
2022/01/13 10:45:43;;;;;;;144.52;38.88;;;5.00;99.90;;;;;;5154464;27;20121;-78
2022/01/13 10:48:19;;;;;;;139.15;39.72;;;5.00;99.90;;;;;;5153098;27;20464;-79
2022/01/13 10:50:53;;;;;;;133.45;37.83;;;5.00;99.90;;;;;;5154678;27;20049;-79
2022/01/13 10:53:25;;;;;;;129.25;38.58;;;5.00;99.90;;;;;;5153676;27;20064;-79
2022/01/13 10:55:54;;;;;;;128.90;38.10;;;5.00;99.90;;;;;;5154180;27;20046;-78
2022/01/13 10:58:26;;;;;;;128.30;37.53;;;5.00;99.90;;;;;;5136283;27;20043;-77
2022/01/13 11:00:52;;;;;;;117.45;36.58;;;5.00;99.90;;;;;;5133437;27;20047;-77
2022/01/13 11:03:21;;;;;;;136.45;39.22;;;5.00;99.90;;;;;;5132943;27;20400;-79
2022/01/13 11:05:53;;;;;;;120.63;38.53;;;5.00;99.90;;;;;;5133139;27;20500;-75
2022/01/13 11:08:30;;;;;;;123.10;36.28;;;5.00;99.90;;;;;;5144126;27;20049;-79
2022/01/13 11:10:59;;;;;;;124.78;37.30;;;5.00;99.90;;;;;;5153036;27;20395;-77
2022/01/13 11:13:28;;;;;;;126.93;37.20;;;5.00;99.90;;;;;;5153694;27;20555;-79
2022/01/13 11:15:57;;;;;;;118.80;36.38;;;5.00;99.90;;;;;;5153981;27;20042;-76
2022/01/13 11:18:29;;;;;;;110.70;34.70;;;5.10;99.90;;;;;;5151874;27;20050;-79
2022/01/13 11:20:58;;;;;;;114.00;35.08;;;5.10;99.90;;;;;;5153910;27;20046;-75
2022/01/13 11:23:24;;;;;;;144.45;39.00;;;5.00;99.90;;;;;;5148539;27;20368;-79
2022/01/13 11:25:52;;;;;;;120.18;35.67;;;5.10;99.90;;;;;;5133679;27;20047;-78
2022/01/13 11:28:19;;;;;;;112.57;35.17;;;5.10;99.90;;;;;;5131768;27;20476;-76
2022/01/13 11:30:49;;;;;;;119.75;36.45;;;5.00;99.90;;;;;;5132163;27;20466;-79
2022/01/13 11:33:19;;;;;;;105.55;36.28;;;5.10;99.90;;;;;;5131791;27;20043;-78
2022/01/13 11:35:53;;;;;;;108.32;35.53;;;5.10;99.90;;;;;;5131834;27;20107;-76
2022/01/13 11:38:20;;;;;;;116.90;34.47;;;5.10;99.90;;;;;;5131978;27;20035;-78
2022/01/13 11:40:48;;;;;;;99.05;33.78;;;5.10;99.90;;;;;;5131742;27;20122;-76
2022/01/13 11:43:36;;;;;;;105.80;34.25;;;5.10;99.90;;;;;;5131605;27;20126;-78
2022/01/13 11:46:28;;;;;;;103.72;35.17;;;5.10;99.90;;;;;;5132221;27;20139;-78
2022/01/13 11:49:00;;;;;;;98.20;34.33;;;5.20;99.90;;;;;;5129308;27;20055;-78
2022/01/13 11:51:29;;;;;;;107.13;34.95;;;5.20;99.90;;;;;;5131510;27;20175;-77
2022/01/13 11:53:56;;;;;;;95.93;32.97;;;5.20;99.90;;;;;;5131285;27;20128;-77
2022/01/13 11:56:24;;;;;;;100.45;33.67;;;5.20;99.90;;;;;;5130527;27;20049;-78
2022/01/13 11:58:50;;;;;;;105.15;33.35;;;5.20;99.90;;;;;;5132223;27;20047;-77
2022/01/13 12:01:24;;;;;;;110.40;33.88;;;5.20;99.90;;;;;;5129115;27;20061;-73
2022/01/13 12:03:59;;;;;;;101.90;33.20;;;5.30;99.90;;;;;;5131199;27;20510;-79
2022/01/13 12:06:48;;;;;;;88.20;31.50;;;5.30;99.90;;;;;;5131331;27;20129;-78
2022/01/13 12:09:23;;;;;;;95.95;32.95;;;5.30;99.90;;;;;;5130882;27;20472;-73
2022/01/13 12:11:56;;;;;;;89.43;32.53;;;5.30;99.90;;;;;;5131205;27;20043;-79
2022/01/13 12:14:28;;;;;;;95.55;34.22;;;5.20;99.90;;;;;;5131212;27;20050;-78
2022/01/13 12:17:06;;;;;;;89.90;32.85;;;5.30;99.90;;;;;;5131505;27;20134;-77
2022/01/13 12:19:36;;;;;;;96.60;33.35;;;5.30;99.90;;;;;;5127445;27;20376;-78
2022/01/13 12:22:06;;;;;;;92.95;32.70;;;5.30;99.90;;;;;;5126511;27;20483;-74
2022/01/13 12:24:55;;;;;;;85.10;33.00;;;5.30;99.90;;;;;;5128050;27;20084;-78
2022/01/13 12:27:51;;;;;;;92.25;32.47;;;5.30;99.90;;;;;;5122920;27;20499;-78
2022/01/13 12:30:21;;;;;;;80.82;30.92;;;5.40;99.90;;;;;;5126122;27;20465;-78
2022/01/13 12:32:48;;;;;;;83.40;31.63;;;5.40;99.90;;;;;;5134001;27;20073;-75
2022/01/13 12:35:34;;;;;;;91.15;32.22;;;5.30;99.90;;;;;;5130194;27;20034;-78
2022/01/13 12:38:07;;;;;;;78.50;31.05;;;5.40;99.90;;;;;;5117045;27;20055;-78
2022/01/13 12:40:44;;;;;;;78.63;31.15;;;5.40;99.90;;;;;;5132817;27;20415;-79
2022/01/13 12:43:37;;;;;;;71.95;28.88;;;5.40;99.90;;;;;;5131629;27;20075;-79
2022/01/13 12:46:12;;;;;;;71.32;29.17;;;5.40;99.90;;;;;;5137382;27;20121;-79
2022/01/13 12:48:40;;;;;;;76.13;29.85;;;5.40;99.90;;;;;;5133350;27;20043;-79
2022/01/13 12:51:11;;;;;;;67.10;28.70;;;5.40;99.90;;;;;;5130015;27;20043;-79
2022/01/13 12:53:37;;;;;;;73.10;29.40;;;5.40;99.90;;;;;;5130266;27;20139;-78
2022/01/13 12:56:06;;;;;;;68.50;28.75;;;5.40;99.90;;;;;;5133694;27;20088;-79
2022/01/13 12:58:53;;;;;;;74.95;30.40;;;5.40;99.90;;;;;;5133162;27;20046;-79
2022/01/13 13:01:27;;;;;;;71.57;29.00;;;5.40;99.90;;;;;;5132424;27;20054;-75
2022/01/13 13:04:04;;;;;;;70.20;29.80;;;5.40;99.90;;;;;;5130173;27;20042;-78
2022/01/13 13:06:34;;;;;;;68.47;29.67;;;5.40;99.90;;;;;;5133324;27;20043;-79